sensor_id;sensor_type;location;lat;lon;timestamp;P1;durP1;ratioP1;P2;durP2;ratioP2
57317;SDS011;43157;50.982;18.132;2023-03-01T00:00:50;98.70;;;36.10;;
57317;SDS011;43157;50.982;18.132;2023-03-01T00:03:15;95.00;;;34.80;;
57317;SDS011;43157;50.982;18.132;2023-03-01T00:05:45;82.90;;;31.80;;
57317;SDS011;43157;50.982;18.132;2023-03-01T00:08:11;98.40;;;35.40;;
57317;SDS011;43157;50.982;18.132;2023-03-01T00:10:37;93.90;;;34.10;;
57317;SDS011;43157;50.982;18.132;2023-03-01T00:13:03;97.00;;;32.40;;
57317;SDS011;43157;50.982;18.132;2023-03-01T00:15:30;83.90;;;31.30;;
57317;SDS011;43157;50.982;18.132;2023-03-01T00:20:02;75.20;;;29.50;;
57317;SDS011;43157;50.982;18.132;2023-03-01T00:22:28;77.60;;;29.20;;
57317;SDS011;43157;50.982;18.132;2023-03-01T00:24:53;76.60;;;29.30;;
57317;SDS011;43157;50.982;18.132;2023-03-01T00:27:19;70.80;;;27.80;;
57317;SDS011;43157;50.982;18.132;2023-03-01T00:29:45;67.30;;;26.20;;
57317;SDS011;43157;50.982;18.132;2023-03-01T00:32:10;69.80;;;28.30;;
57317;SDS011;43157;50.982;18.132;2023-03-01T00:34:36;71.40;;;25.40;;
57317;SDS011;43157;50.982;18.132;2023-03-01T00:37:01;74.30;;;26.40;;
57317;SDS011;43157;50.982;18.132;2023-03-01T00:39:30;78.70;;;28.10;;
57317;SDS011;43157;50.982;18.132;2023-03-01T00:41:57;75.10;;;27.40;;
57317;SDS011;43157;50.982;18.132;2023-03-01T00:44:23;70.70;;;26.90;;
57317;SDS011;43157;50.982;18.132;2023-03-01T00:46:48;78.10;;;28.80;;
57317;SDS011;43157;50.982;18.132;2023-03-01T00:49:14;65.70;;;25.70;;
57317;SDS011;43157;50.982;18.132;2023-03-01T00:51:39;63.20;;;25.60;;
57317;SDS011;43157;50.982;18.132;2023-03-01T00:54:09;82.60;;;32.40;;
57317;SDS011;43157;50.982;18.132;2023-03-01T00:56:35;93.80;;;34.30;;
57317;SDS011;43157;50.982;18.132;2023-03-01T00:59:01;89.90;;;33.20;;
57317;SDS011;43157;50.982;18.132;2023-03-01T01:01:27;78.10;;;32.20;;
57317;SDS011;43157;50.982;18.132;2023-03-01T01:04:02;87.40;;;32.50;;
57317;SDS011;43157;50.982;18.132;2023-03-01T01:06:31;92.50;;;33.70;;
57317;SDS011;43157;50.982;18.132;2023-03-01T01:08:59;94.00;;;32.80;;
57317;SDS011;43157;50.982;18.132;2023-03-01T01:11:26;87.60;;;33.80;;
57317;SDS011;43157;50.982;18.132;2023-03-01T01:13:52;124.30;;;42.00;;
57317;SDS011;43157;50.982;18.132;2023-03-01T01:16:19;124.10;;;43.70;;
57317;SDS011;43157;50.982;18.132;2023-03-01T01:18:46;158.40;;;55.60;;
57317;SDS011;43157;50.982;18.132;2023-03-01T01:21:13;216.50;;;71.50;;
57317;SDS011;43157;50.982;18.132;2023-03-01T01:23:40;520.70;;;135.60;;
57317;SDS011;43157;50.982;18.132;2023-03-01T01:26:09;210.70;;;64.90;;
57317;SDS011;43157;50.982;18.132;2023-03-01T01:28:36;163.00;;;54.20;;
57317;SDS011;43157;50.982;18.132;2023-03-01T01:31:02;159.60;;;59.00;;
57317;SDS011;43157;50.982;18.132;2023-03-01T01:33:28;156.90;;;56.40;;
57317;SDS011;43157;50.982;18.132;2023-03-01T01:35:54;177.20;;;56.60;;
57317;SDS011;43157;50.982;18.132;2023-03-01T01:38:20;139.50;;;46.50;;
57317;SDS011;43157;50.982;18.132;2023-03-01T01:40:47;129.30;;;44.90;;
57317;SDS011;43157;50.982;18.132;2023-03-01T01:46:23;174.10;;;59.30;;
57317;SDS011;43157;50.982;18.132;2023-03-01T01:49:03;193.90;;;68.30;;
57317;SDS011;43157;50.982;18.132;2023-03-01T01:51:33;197.60;;;66.10;;
57317;SDS011;43157;50.982;18.132;2023-03-01T01:54:06;195.70;;;65.80;;
57317;SDS011;43157;50.982;18.132;2023-03-01T01:56:37;162.10;;;55.70;;
57317;SDS011;43157;50.982;18.132;2023-03-01T01:59:04;173.80;;;57.70;;
57317;SDS011;43157;50.982;18.132;2023-03-01T02:01:30;139.50;;;49.70;;
57317;SDS011;43157;50.982;18.132;2023-03-01T02:03:56;158.20;;;54.50;;
57317;SDS011;43157;50.982;18.132;2023-03-01T02:06:26;186.20;;;59.60;;
57317;SDS011;43157;50.982;18.132;2023-03-01T02:08:54;138.90;;;48.40;;
57317;SDS011;43157;50.982;18.132;2023-03-01T02:11:21;132.60;;;46.60;;
57317;SDS011;43157;50.982;18.132;2023-03-01T02:13:47;116.20;;;43.30;;
57317;SDS011;43157;50.982;18.132;2023-03-01T02:16:13;102.10;;;38.20;;
57317;SDS011;43157;50.982;18.132;2023-03-01T02:18:41;99.30;;;36.30;;
57317;SDS011;43157;50.982;18.132;2023-03-01T02:23:50;106.20;;;38.70;;
57317;SDS011;43157;50.982;18.132;2023-03-01T02:29:02;105.50;;;38.60;;
57317;SDS011;43157;50.982;18.132;2023-03-01T02:31:28;104.60;;;38.50;;
57317;SDS011;43157;50.982;18.132;2023-03-01T02:34:13;104.60;;;36.00;;
57317;SDS011;43157;50.982;18.132;2023-03-01T02:36:42;96.50;;;35.30;;
57317;SDS011;43157;50.982;18.132;2023-03-01T02:39:11;105.90;;;39.70;;
57317;SDS011;43157;50.982;18.132;2023-03-01T02:41:42;90.50;;;33.70;;
57317;SDS011;43157;50.982;18.132;2023-03-01T02:44:11;88.80;;;31.80;;
57317;SDS011;43157;50.982;18.132;2023-03-01T02:46:42;88.30;;;33.90;;
57317;SDS011;43157;50.982;18.132;2023-03-01T02:49:22;101.90;;;35.90;;
57317;SDS011;43157;50.982;18.132;2023-03-01T02:54:28;101.90;;;35.30;;
57317;SDS011;43157;50.982;18.132;2023-03-01T02:57:02;119.40;;;49.40;;
57317;SDS011;43157;50.982;18.132;2023-03-01T02:59:29;126.60;;;44.20;;
57317;SDS011;43157;50.982;18.132;2023-03-01T03:01:57;137.00;;;49.80;;
57317;SDS011;43157;50.982;18.132;2023-03-01T03:04:22;115.60;;;41.40;;
57317;SDS011;43157;50.982;18.132;2023-03-01T03:06:49;102.80;;;37.30;;
57317;SDS011;43157;50.982;18.132;2023-03-01T03:09:15;107.80;;;36.80;;
57317;SDS011;43157;50.982;18.132;2023-03-01T03:11:42;114.20;;;39.50;;
57317;SDS011;43157;50.982;18.132;2023-03-01T03:14:12;111.80;;;39.40;;
57317;SDS011;43157;50.982;18.132;2023-03-01T03:16:40;122.00;;;45.00;;
57317;SDS011;43157;50.982;18.132;2023-03-01T03:19:09;146.40;;;49.20;;
57317;SDS011;43157;50.982;18.132;2023-03-01T03:21:35;134.50;;;47.70;;
57317;SDS011;43157;50.982;18.132;2023-03-01T03:24:01;132.10;;;49.60;;
57317;SDS011;43157;50.982;18.132;2023-03-01T03:26:26;145.20;;;49.10;;
57317;SDS011;43157;50.982;18.132;2023-03-01T03:28:53;125.40;;;47.20;;
57317;SDS011;43157;50.982;18.132;2023-03-01T03:31:18;109.30;;;40.70;;
57317;SDS011;43157;50.982;18.132;2023-03-01T03:33:44;117.90;;;41.50;;
57317;SDS011;43157;50.982;18.132;2023-03-01T03:36:14;121.30;;;43.70;;
57317;SDS011;43157;50.982;18.132;2023-03-01T03:38:43;118.60;;;44.60;;
57317;SDS011;43157;50.982;18.132;2023-03-01T03:41:10;126.10;;;44.80;;
57317;SDS011;43157;50.982;18.132;2023-03-01T03:43:36;125.30;;;43.50;;
57317;SDS011;43157;50.982;18.132;2023-03-01T03:46:03;126.40;;;44.90;;
57317;SDS011;43157;50.982;18.132;2023-03-01T03:48:31;140.80;;;47.30;;
57317;SDS011;43157;50.982;18.132;2023-03-01T03:50:59;155.10;;;52.60;;
57317;SDS011;43157;50.982;18.132;2023-03-01T03:53:25;136.60;;;52.90;;
57317;SDS011;43157;50.982;18.132;2023-03-01T03:55:52;146.20;;;52.10;;
57317;SDS011;43157;50.982;18.132;2023-03-01T03:58:18;133.60;;;48.60;;
57317;SDS011;43157;50.982;18.132;2023-03-01T04:00:46;125.50;;;45.10;;
57317;SDS011;43157;50.982;18.132;2023-03-01T04:03:14;128.40;;;44.40;;
57317;SDS011;43157;50.982;18.132;2023-03-01T04:05:41;103.70;;;40.70;;
57317;SDS011;43157;50.982;18.132;2023-03-01T04:08:07;101.30;;;35.90;;
57317;SDS011;43157;50.982;18.132;2023-03-01T04:10:37;118.10;;;41.50;;
57317;SDS011;43157;50.982;18.132;2023-03-01T04:13:04;110.30;;;42.20;;
57317;SDS011;43157;50.982;18.132;2023-03-01T04:15:31;109.00;;;39.40;;
57317;SDS011;43157;50.982;18.132;2023-03-01T04:17:58;121.30;;;42.40;;
57317;SDS011;43157;50.982;18.132;2023-03-01T04:20:25;112.40;;;42.50;;
57317;SDS011;43157;50.982;18.132;2023-03-01T04:22:57;114.50;;;39.80;;
57317;SDS011;43157;50.982;18.132;2023-03-01T04:25:33;96.20;;;39.40;;
57317;SDS011;43157;50.982;18.132;2023-03-01T04:27:59;91.40;;;37.10;;
57317;SDS011;43157;50.982;18.132;2023-03-01T04:30:25;104.60;;;38.60;;
57317;SDS011;43157;50.982;18.132;2023-03-01T04:32:50;98.20;;;35.90;;
57317;SDS011;43157;50.982;18.132;2023-03-01T04:35:16;107.10;;;38.90;;
57317;SDS011;43157;50.982;18.132;2023-03-01T04:37:42;116.90;;;48.50;;
57317;SDS011;43157;50.982;18.132;2023-03-01T04:40:07;131.00;;;53.40;;
57317;SDS011;43157;50.982;18.132;2023-03-01T04:42:41;124.40;;;45.40;;
57317;SDS011;43157;50.982;18.132;2023-03-01T04:45:08;144.60;;;51.40;;
57317;SDS011;43157;50.982;18.132;2023-03-01T04:47:38;142.60;;;51.10;;
57317;SDS011;43157;50.982;18.132;2023-03-01T04:50:06;121.30;;;44.00;;
57317;SDS011;43157;50.982;18.132;2023-03-01T04:52:32;111.80;;;40.50;;
57317;SDS011;43157;50.982;18.132;2023-03-01T04:54:57;140.40;;;49.70;;
57317;SDS011;43157;50.982;18.132;2023-03-01T04:57:23;143.30;;;48.90;;
57317;SDS011;43157;50.982;18.132;2023-03-01T04:59:49;145.90;;;52.20;;
57317;SDS011;43157;50.982;18.132;2023-03-01T05:14:13;101.20;;;43.30;;
57317;SDS011;43157;50.982;18.132;2023-03-01T05:16:38;109.60;;;41.70;;
57317;SDS011;43157;50.982;18.132;2023-03-01T05:19:04;98.00;;;36.00;;
57317;SDS011;43157;50.982;18.132;2023-03-01T05:21:37;114.50;;;41.70;;
57317;SDS011;43157;50.982;18.132;2023-03-01T05:24:27;124.30;;;45.00;;
57317;SDS011;43157;50.982;18.132;2023-03-01T05:26:53;110.70;;;44.60;;
57317;SDS011;43157;50.982;18.132;2023-03-01T05:29:20;108.70;;;41.00;;
57317;SDS011;43157;50.982;18.132;2023-03-01T05:31:51;100.90;;;39.00;;
57317;SDS011;43157;50.982;18.132;2023-03-01T05:34:35;98.50;;;36.20;;
57317;SDS011;43157;50.982;18.132;2023-03-01T05:37:02;107.50;;;41.70;;
57317;SDS011;43157;50.982;18.132;2023-03-01T05:39:28;109.10;;;42.60;;
57317;SDS011;43157;50.982;18.132;2023-03-01T05:41:55;113.80;;;42.20;;
57317;SDS011;43157;50.982;18.132;2023-03-01T05:44:22;105.80;;;41.00;;
57317;SDS011;43157;50.982;18.132;2023-03-01T05:46:48;109.90;;;41.50;;
57317;SDS011;43157;50.982;18.132;2023-03-01T05:49:14;181.80;;;53.40;;
57317;SDS011;43157;50.982;18.132;2023-03-01T05:51:41;122.60;;;44.60;;
57317;SDS011;43157;50.982;18.132;2023-03-01T05:54:08;160.20;;;52.30;;
57317;SDS011;43157;50.982;18.132;2023-03-01T05:56:35;137.00;;;49.40;;
57317;SDS011;43157;50.982;18.132;2023-03-01T05:59:02;118.80;;;42.00;;
57317;SDS011;43157;50.982;18.132;2023-03-01T06:01:30;192.60;;;61.80;;
57317;SDS011;43157;50.982;18.132;2023-03-01T06:03:59;247.30;;;82.80;;
57317;SDS011;43157;50.982;18.132;2023-03-01T06:06:25;313.60;;;96.80;;
57317;SDS011;43157;50.982;18.132;2023-03-01T06:08:51;216.20;;;85.50;;
57317;SDS011;43157;50.982;18.132;2023-03-01T06:11:17;98.20;;;39.90;;
57317;SDS011;43157;50.982;18.132;2023-03-01T06:13:43;113.30;;;43.10;;
57317;SDS011;43157;50.982;18.132;2023-03-01T06:16:09;119.40;;;44.90;;
57317;SDS011;43157;50.982;18.132;2023-03-01T06:18:35;112.80;;;42.50;;
57317;SDS011;43157;50.982;18.132;2023-03-01T06:21:02;138.20;;;51.50;;
57317;SDS011;43157;50.982;18.132;2023-03-01T06:23:28;152.80;;;57.30;;
57317;SDS011;43157;50.982;18.132;2023-03-01T06:25:54;151.00;;;57.10;;
57317;SDS011;43157;50.982;18.132;2023-03-01T06:28:19;118.50;;;45.70;;
57317;SDS011;43157;50.982;18.132;2023-03-01T06:30:45;109.10;;;40.40;;
57317;SDS011;43157;50.982;18.132;2023-03-01T06:33:11;94.80;;;35.60;;
57317;SDS011;43157;50.982;18.132;2023-03-01T06:35:37;107.50;;;42.80;;
57317;SDS011;43157;50.982;18.132;2023-03-01T06:38:03;135.20;;;55.20;;
57317;SDS011;43157;50.982;18.132;2023-03-01T06:40:29;123.60;;;49.50;;
57317;SDS011;43157;50.982;18.132;2023-03-01T06:42:56;114.90;;;49.50;;
57317;SDS011;43157;50.982;18.132;2023-03-01T06:45:22;128.40;;;53.20;;
57317;SDS011;43157;50.982;18.132;2023-03-01T06:47:49;126.80;;;49.70;;
57317;SDS011;43157;50.982;18.132;2023-03-01T06:50:15;113.50;;;47.30;;
57317;SDS011;43157;50.982;18.132;2023-03-01T06:52:42;101.80;;;44.70;;
57317;SDS011;43157;50.982;18.132;2023-03-01T06:55:10;98.80;;;43.80;;
57317;SDS011;43157;50.982;18.132;2023-03-01T06:57:36;108.00;;;47.40;;
57317;SDS011;43157;50.982;18.132;2023-03-01T07:00:05;105.50;;;46.40;;
57317;SDS011;43157;50.982;18.132;2023-03-01T07:02:32;104.80;;;47.40;;
57317;SDS011;43157;50.982;18.132;2023-03-01T07:04:57;92.50;;;40.90;;
57317;SDS011;43157;50.982;18.132;2023-03-01T07:07:23;94.50;;;45.10;;
57317;SDS011;43157;50.982;18.132;2023-03-01T07:09:49;106.00;;;48.30;;
57317;SDS011;43157;50.982;18.132;2023-03-01T07:12:15;94.20;;;42.10;;
57317;SDS011;43157;50.982;18.132;2023-03-01T07:14:41;87.10;;;40.90;;
57317;SDS011;43157;50.982;18.132;2023-03-01T07:17:06;91.20;;;41.30;;
57317;SDS011;43157;50.982;18.132;2023-03-01T07:19:32;95.10;;;43.40;;
57317;SDS011;43157;50.982;18.132;2023-03-01T07:21:58;108.00;;;49.00;;
57317;SDS011;43157;50.982;18.132;2023-03-01T07:24:24;111.00;;;52.00;;
57317;SDS011;43157;50.982;18.132;2023-03-01T07:26:50;105.10;;;48.20;;
57317;SDS011;43157;50.982;18.132;2023-03-01T07:29:16;104.30;;;47.70;;
57317;SDS011;43157;50.982;18.132;2023-03-01T07:31:42;104.60;;;47.20;;
57317;SDS011;43157;50.982;18.132;2023-03-01T07:34:07;110.40;;;49.80;;
57317;SDS011;43157;50.982;18.132;2023-03-01T07:36:33;109.00;;;50.80;;
57317;SDS011;43157;50.982;18.132;2023-03-01T07:38:59;94.90;;;45.30;;
57317;SDS011;43157;50.982;18.132;2023-03-01T07:41:27;103.90;;;48.70;;
57317;SDS011;43157;50.982;18.132;2023-03-01T07:43:53;105.30;;;46.30;;
57317;SDS011;43157;50.982;18.132;2023-03-01T07:46:19;82.70;;;40.60;;
57317;SDS011;43157;50.982;18.132;2023-03-01T07:48:44;78.70;;;38.50;;
57317;SDS011;43157;50.982;18.132;2023-03-01T07:51:10;80.10;;;40.40;;
57317;SDS011;43157;50.982;18.132;2023-03-01T07:53:36;80.30;;;40.50;;
57317;SDS011;43157;50.982;18.132;2023-03-01T07:56:09;83.70;;;40.90;;
57317;SDS011;43157;50.982;18.132;2023-03-01T07:58:37;80.40;;;40.40;;
57317;SDS011;43157;50.982;18.132;2023-03-01T08:01:07;89.40;;;42.70;;
57317;SDS011;43157;50.982;18.132;2023-03-01T08:03:35;93.50;;;45.30;;
57317;SDS011;43157;50.982;18.132;2023-03-01T08:06:02;94.30;;;48.70;;
57317;SDS011;43157;50.982;18.132;2023-03-01T08:08:28;83.20;;;43.50;;
57317;SDS011;43157;50.982;18.132;2023-03-01T08:11:01;86.30;;;45.90;;
57317;SDS011;43157;50.982;18.132;2023-03-01T08:15:53;52.50;;;25.20;;
57317;SDS011;43157;50.982;18.132;2023-03-01T08:18:20;60.40;;;29.50;;
57317;SDS011;43157;50.982;18.132;2023-03-01T08:20:46;81.00;;;38.60;;
57317;SDS011;43157;50.982;18.132;2023-03-01T08:23:12;96.20;;;42.50;;
57317;SDS011;43157;50.982;18.132;2023-03-01T08:25:37;84.40;;;40.20;;
57317;SDS011;43157;50.982;18.132;2023-03-01T08:28:03;93.40;;;42.70;;
57317;SDS011;43157;50.982;18.132;2023-03-01T08:30:29;95.70;;;44.20;;
57317;SDS011;43157;50.982;18.132;2023-03-01T08:32:55;91.40;;;43.40;;
57317;SDS011;43157;50.982;18.132;2023-03-01T08:35:21;100.40;;;44.20;;
57317;SDS011;43157;50.982;18.132;2023-03-01T08:37:47;97.90;;;44.90;;
57317;SDS011;43157;50.982;18.132;2023-03-01T08:40:13;104.80;;;48.20;;
57317;SDS011;43157;50.982;18.132;2023-03-01T08:42:42;130.30;;;54.50;;
57317;SDS011;43157;50.982;18.132;2023-03-01T08:45:08;108.00;;;48.00;;
57317;SDS011;43157;50.982;18.132;2023-03-01T08:47:35;117.40;;;46.30;;
57317;SDS011;43157;50.982;18.132;2023-03-01T08:50:00;129.40;;;54.30;;
57317;SDS011;43157;50.982;18.132;2023-03-01T08:52:26;124.70;;;53.50;;
57317;SDS011;43157;50.982;18.132;2023-03-01T08:54:53;125.20;;;50.60;;
57317;SDS011;43157;50.982;18.132;2023-03-01T08:57:18;116.10;;;47.70;;
57317;SDS011;43157;50.982;18.132;2023-03-01T08:59:44;114.20;;;45.40;;
57317;SDS011;43157;50.982;18.132;2023-03-01T09:02:11;98.40;;;41.20;;
57317;SDS011;43157;50.982;18.132;2023-03-01T09:04:38;81.30;;;35.00;;
57317;SDS011;43157;50.982;18.132;2023-03-01T09:07:04;90.50;;;38.00;;
57317;SDS011;43157;50.982;18.132;2023-03-01T09:09:29;86.90;;;38.00;;
57317;SDS011;43157;50.982;18.132;2023-03-01T09:11:55;68.50;;;30.60;;
57317;SDS011;43157;50.982;18.132;2023-03-01T09:14:21;65.70;;;30.10;;
57317;SDS011;43157;50.982;18.132;2023-03-01T09:16:47;60.70;;;28.20;;
57317;SDS011;43157;50.982;18.132;2023-03-01T09:19:12;67.00;;;33.00;;
57317;SDS011;43157;50.982;18.132;2023-03-01T09:21:38;64.90;;;31.20;;
57317;SDS011;43157;50.982;18.132;2023-03-01T09:24:05;60.50;;;28.70;;
57317;SDS011;43157;50.982;18.132;2023-03-01T09:26:31;58.20;;;29.90;;
57317;SDS011;43157;50.982;18.132;2023-03-01T09:28:56;67.70;;;31.80;;
57317;SDS011;43157;50.982;18.132;2023-03-01T09:31:23;59.50;;;31.00;;
57317;SDS011;43157;50.982;18.132;2023-03-01T09:33:50;60.30;;;31.90;;
57317;SDS011;43157;50.982;18.132;2023-03-01T09:36:19;62.30;;;33.00;;
57317;SDS011;43157;50.982;18.132;2023-03-01T09:38:46;71.90;;;39.40;;
57317;SDS011;43157;50.982;18.132;2023-03-01T09:44:01;65.60;;;32.70;;
57317;SDS011;43157;50.982;18.132;2023-03-01T09:46:32;66.70;;;33.00;;
57317;SDS011;43157;50.982;18.132;2023-03-01T09:49:23;53.70;;;29.70;;
57317;SDS011;43157;50.982;18.132;2023-03-01T09:54:57;43.60;;;22.80;;
57317;SDS011;43157;50.982;18.132;2023-03-01T09:57:46;33.00;;;18.50;;
57317;SDS011;43157;50.982;18.132;2023-03-01T10:11:20;32.10;;;16.90;;
57317;SDS011;43157;50.982;18.132;2023-03-01T10:13:50;32.50;;;18.20;;
57317;SDS011;43157;50.982;18.132;2023-03-01T10:19:14;42.00;;;23.40;;
57317;SDS011;43157;50.982;18.132;2023-03-01T10:24:15;43.20;;;24.10;;
57317;SDS011;43157;50.982;18.132;2023-03-01T10:26:48;40.90;;;22.60;;
57317;SDS011;43157;50.982;18.132;2023-03-01T10:29:16;39.50;;;21.70;;
57317;SDS011;43157;50.982;18.132;2023-03-01T10:31:48;39.60;;;22.40;;
57317;SDS011;43157;50.982;18.132;2023-03-01T10:34:17;42.80;;;21.80;;
57317;SDS011;43157;50.982;18.132;2023-03-01T10:36:45;37.80;;;21.20;;
57317;SDS011;43157;50.982;18.132;2023-03-01T10:39:20;39.00;;;21.00;;
57317;SDS011;43157;50.982;18.132;2023-03-01T10:44:43;34.90;;;17.20;;
57317;SDS011;43157;50.982;18.132;2023-03-01T10:49:52;31.90;;;17.70;;
57317;SDS011;43157;50.982;18.132;2023-03-01T10:52:35;35.70;;;18.80;;
57317;SDS011;43157;50.982;18.132;2023-03-01T10:57:48;143.10;;;56.50;;
57317;SDS011;43157;50.982;18.132;2023-03-01T11:00:34;86.10;;;45.50;;
57317;SDS011;43157;50.982;18.132;2023-03-01T11:05:26;32.90;;;17.60;;
57317;SDS011;43157;50.982;18.132;2023-03-01T11:07:56;33.30;;;17.80;;
57317;SDS011;43157;50.982;18.132;2023-03-01T11:10:25;31.10;;;17.20;;
57317;SDS011;43157;50.982;18.132;2023-03-01T11:12:53;28.50;;;15.70;;
57317;SDS011;43157;50.982;18.132;2023-03-01T11:15:20;33.50;;;17.60;;
57317;SDS011;43157;50.982;18.132;2023-03-01T11:17:52;31.80;;;16.60;;
57317;SDS011;43157;50.982;18.132;2023-03-01T11:20:26;35.20;;;18.30;;
57317;SDS011;43157;50.982;18.132;2023-03-01T11:22:54;32.20;;;17.90;;
57317;SDS011;43157;50.982;18.132;2023-03-01T11:25:26;31.60;;;17.90;;
57317;SDS011;43157;50.982;18.132;2023-03-01T11:27:54;34.40;;;18.10;;
57317;SDS011;43157;50.982;18.132;2023-03-01T11:32:56;33.50;;;18.20;;
57317;SDS011;43157;50.982;18.132;2023-03-01T11:35:25;35.60;;;18.70;;
57317;SDS011;43157;50.982;18.132;2023-03-01T11:40:29;38.10;;;17.60;;
57317;SDS011;43157;50.982;18.132;2023-03-01T11:43:04;35.10;;;18.10;;
57317;SDS011;43157;50.982;18.132;2023-03-01T11:45:58;41.60;;;20.50;;
57317;SDS011;43157;50.982;18.132;2023-03-01T11:51:09;35.20;;;17.30;;
57317;SDS011;43157;50.982;18.132;2023-03-01T12:06:57;34.30;;;16.20;;
57317;SDS011;43157;50.982;18.132;2023-03-01T12:12:26;46.70;;;23.80;;
57317;SDS011;43157;50.982;18.132;2023-03-01T12:15:11;33.50;;;15.60;;
57317;SDS011;43157;50.982;18.132;2023-03-01T12:29:16;35.00;;;17.80;;
57317;SDS011;43157;50.982;18.132;2023-03-01T12:37:54;38.90;;;19.50;;
57317;SDS011;43157;50.982;18.132;2023-03-01T12:43:47;36.00;;;18.60;;
57317;SDS011;43157;50.982;18.132;2023-03-01T12:52:49;38.50;;;18.90;;
57317;SDS011;43157;50.982;18.132;2023-03-01T12:55:28;35.10;;;19.20;;
57317;SDS011;43157;50.982;18.132;2023-03-01T13:14:57;33.80;;;17.30;;
57317;SDS011;43157;50.982;18.132;2023-03-01T13:17:33;35.90;;;16.60;;
57317;SDS011;43157;50.982;18.132;2023-03-01T13:20:11;29.90;;;15.70;;
57317;SDS011;43157;50.982;18.132;2023-03-01T13:22:38;35.30;;;19.00;;
57317;SDS011;43157;50.982;18.132;2023-03-01T13:25:15;36.10;;;19.60;;
57317;SDS011;43157;50.982;18.132;2023-03-01T13:27:43;35.80;;;19.30;;
57317;SDS011;43157;50.982;18.132;2023-03-01T13:35:51;28.20;;;14.20;;
57317;SDS011;43157;50.982;18.132;2023-03-01T13:41:02;30.40;;;15.80;;
57317;SDS011;43157;50.982;18.132;2023-03-01T13:43:29;30.80;;;14.40;;
57317;SDS011;43157;50.982;18.132;2023-03-01T13:46:00;30.70;;;15.00;;
57317;SDS011;43157;50.982;18.132;2023-03-01T13:48:29;29.40;;;12.90;;
57317;SDS011;43157;50.982;18.132;2023-03-01T13:50:58;28.50;;;14.30;;
57317;SDS011;43157;50.982;18.132;2023-03-01T13:53:26;27.60;;;13.90;;
57317;SDS011;43157;50.982;18.132;2023-03-01T13:55:58;29.30;;;13.90;;
57317;SDS011;43157;50.982;18.132;2023-03-01T13:58:28;29.60;;;14.20;;
57317;SDS011;43157;50.982;18.132;2023-03-01T14:01:18;29.20;;;14.00;;
57317;SDS011;43157;50.982;18.132;2023-03-01T14:03:51;24.90;;;12.90;;
57317;SDS011;43157;50.982;18.132;2023-03-01T14:06:28;25.90;;;12.60;;
57317;SDS011;43157;50.982;18.132;2023-03-01T14:09:08;26.60;;;13.00;;
57317;SDS011;43157;50.982;18.132;2023-03-01T14:19:57;27.10;;;12.90;;
57317;SDS011;43157;50.982;18.132;2023-03-01T14:22:25;26.60;;;13.40;;
57317;SDS011;43157;50.982;18.132;2023-03-01T14:25:03;28.80;;;13.40;;
57317;SDS011;43157;50.982;18.132;2023-03-01T14:27:39;25.90;;;13.40;;
57317;SDS011;43157;50.982;18.132;2023-03-01T14:30:21;31.00;;;15.90;;
57317;SDS011;43157;50.982;18.132;2023-03-01T14:33:28;26.40;;;13.20;;
57317;SDS011;43157;50.982;18.132;2023-03-01T14:36:25;27.70;;;13.80;;
57317;SDS011;43157;50.982;18.132;2023-03-01T14:38:45;24.40;;;11.80;;
57317;SDS011;43157;50.982;18.132;2023-03-01T14:43:46;24.20;;;11.30;;
57317;SDS011;43157;50.982;18.132;2023-03-01T14:46:20;26.40;;;11.90;;
57317;SDS011;43157;50.982;18.132;2023-03-01T14:51:16;25.40;;;12.60;;
57317;SDS011;43157;50.982;18.132;2023-03-01T14:53:42;28.90;;;14.20;;
57317;SDS011;43157;50.982;18.132;2023-03-01T14:56:14;26.10;;;12.70;;
57317;SDS011;43157;50.982;18.132;2023-03-01T14:58:44;28.00;;;13.70;;
57317;SDS011;43157;50.982;18.132;2023-03-01T15:01:14;25.00;;;13.00;;
57317;SDS011;43157;50.982;18.132;2023-03-01T15:03:45;27.40;;;13.90;;
57317;SDS011;43157;50.982;18.132;2023-03-01T15:06:14;27.30;;;12.60;;
57317;SDS011;43157;50.982;18.132;2023-03-01T15:08:42;25.40;;;12.90;;
57317;SDS011;43157;50.982;18.132;2023-03-01T15:13:39;30.90;;;15.40;;
57317;SDS011;43157;50.982;18.132;2023-03-01T15:16:09;27.30;;;12.80;;
57317;SDS011;43157;50.982;18.132;2023-03-01T15:18:36;32.30;;;14.70;;
57317;SDS011;43157;50.982;18.132;2023-03-01T15:21:08;28.20;;;14.80;;
57317;SDS011;43157;50.982;18.132;2023-03-01T15:23:34;29.90;;;14.90;;
57317;SDS011;43157;50.982;18.132;2023-03-01T15:26:02;32.30;;;15.70;;
57317;SDS011;43157;50.982;18.132;2023-03-01T15:28:33;32.10;;;15.20;;
57317;SDS011;43157;50.982;18.132;2023-03-01T15:31:05;34.70;;;14.00;;
57317;SDS011;43157;50.982;18.132;2023-03-01T15:33:41;35.20;;;16.70;;
57317;SDS011;43157;50.982;18.132;2023-03-01T15:38:58;35.10;;;18.00;;
57317;SDS011;43157;50.982;18.132;2023-03-01T15:43:56;57.50;;;25.50;;
57317;SDS011;43157;50.982;18.132;2023-03-01T15:48:53;56.30;;;24.20;;
57317;SDS011;43157;50.982;18.132;2023-03-01T15:51:22;53.30;;;23.00;;
57317;SDS011;43157;50.982;18.132;2023-03-01T15:53:54;52.60;;;23.10;;
57317;SDS011;43157;50.982;18.132;2023-03-01T15:56:20;46.30;;;19.00;;
57317;SDS011;43157;50.982;18.132;2023-03-01T15:58:46;38.70;;;17.90;;
57317;SDS011;43157;50.982;18.132;2023-03-01T16:01:12;43.60;;;19.30;;
57317;SDS011;43157;50.982;18.132;2023-03-01T16:03:39;39.30;;;17.20;;
57317;SDS011;43157;50.982;18.132;2023-03-01T16:06:05;43.00;;;18.20;;
57317;SDS011;43157;50.982;18.132;2023-03-01T16:08:33;44.30;;;17.50;;
57317;SDS011;43157;50.982;18.132;2023-03-01T16:10:59;47.00;;;19.50;;
57317;SDS011;43157;50.982;18.132;2023-03-01T16:13:25;47.10;;;19.00;;
57317;SDS011;43157;50.982;18.132;2023-03-01T16:15:50;63.30;;;22.10;;
57317;SDS011;43157;50.982;18.132;2023-03-01T16:18:16;45.40;;;19.80;;
57317;SDS011;43157;50.982;18.132;2023-03-01T16:20:42;40.70;;;18.30;;
57317;SDS011;43157;50.982;18.132;2023-03-01T16:23:08;42.80;;;20.70;;
57317;SDS011;43157;50.982;18.132;2023-03-01T16:25:36;37.80;;;16.20;;
57317;SDS011;43157;50.982;18.132;2023-03-01T16:28:03;35.30;;;16.90;;
57317;SDS011;43157;50.982;18.132;2023-03-01T16:30:33;44.20;;;20.00;;
57317;SDS011;43157;50.982;18.132;2023-03-01T16:33:00;42.10;;;17.30;;
57317;SDS011;43157;50.982;18.132;2023-03-01T16:35:26;46.70;;;19.90;;
57317;SDS011;43157;50.982;18.132;2023-03-01T16:37:52;55.60;;;22.10;;
57317;SDS011;43157;50.982;18.132;2023-03-01T16:40:23;56.70;;;23.10;;
57317;SDS011;43157;50.982;18.132;2023-03-01T16:42:53;66.80;;;27.40;;
57317;SDS011;43157;50.982;18.132;2023-03-01T16:45:24;62.70;;;25.80;;
57317;SDS011;43157;50.982;18.132;2023-03-01T16:47:51;60.40;;;23.10;;
57317;SDS011;43157;50.982;18.132;2023-03-01T16:50:17;52.10;;;22.60;;
57317;SDS011;43157;50.982;18.132;2023-03-01T16:52:43;53.40;;;23.00;;